»·PEaware :: JZA579 KPDX-KSFO

JZA579 :: KPDX-KSFO

FLIGHT INFORMATION

Flight Status: Arrived
Operator:
Air Canada Jazz
More flights by this operator :: More flights under this callsign
Pilot: Mike G. (11411)
Aircraft: CANADAIR CL-600 CRJ-900
(CRJ9)
More flights by this aircraft type
Origin: KPDX Portland Intl
United States
Destination: KSFO San Francisco Intl
United States
More flights between these airports :: More routes between these airports
Route: MINNE5 EASON Q1 ETCHY MLBEC BDEGA3
File this flight plan on PilotEdge
Remarks: RMK / SIMBRIEF
Altitude:
(Current/Filed)
37,000ft
Speed:
(Current/Filed)
444kts
Departed: 31-May-19 01:11 PM
Arrived: 31-May-19 02:30 PM
Distance/Time
Traveled:
478nm/1:19
Distance/Time
To Go:
Arrived

Flight Plot

Page will automatically refresh every two minutes.

Flight plan parsing failed; only flown route is shown


Map Options




Map Legend


Flown Route
Filed Route
Departure Airport
Arrival Airport
Navaid (VOR, NDB)
Fix

Horizontal Profiles

Position Reports

Time Latitude Longitude Heading Altitude Ground
Speed
31-May-19 12:43 45.590631 -122.598646 210 37ft 0kts
31-May-19 12:44 45.590631 -122.598646 210 37ft 0kts
31-May-19 12:45 45.590631 -122.598646 210 37ft 0kts
31-May-19 12:46 45.590631 -122.598646 210 37ft 0kts
31-May-19 12:47 45.590631 -122.598646 210 37ft 0kts
31-May-19 12:48 45.590631 -122.598646 210 37ft 0kts
31-May-19 12:49 45.590631 -122.598646 210 37ft 0kts
31-May-19 12:50 45.590631 -122.598646 210 37ft 0kts
31-May-19 12:51 45.590631 -122.598646 210 37ft 0kts
31-May-19 12:52 45.590631 -122.598646 210 37ft 0kts
31-May-19 12:53 45.590631 -122.598646 210 37ft 0kts
31-May-19 12:54 45.590631 -122.598646 210 37ft 0kts
31-May-19 12:55 45.590975 -122.598353 210 37ft 2kts
31-May-19 12:56 45.591327 -122.598053 210 37ft 0kts
31-May-19 12:57 45.591327 -122.598053 210 37ft 0kts
31-May-19 12:58 45.591326 -122.598054 210 37ft 0kts
31-May-19 12:59 45.591324 -122.598055 210 37ft 0kts
31-May-19 13:00 45.591323 -122.598056 210 37ft 0kts
31-May-19 13:01 45.591321 -122.598058 210 37ft 0kts
31-May-19 13:02 45.591258 -122.598351 306 37ft 2kts
31-May-19 13:03 45.592928 -122.597332 39 37ft 11kts
31-May-19 13:04 45.594580 -122.597097 0 37ft 0kts
31-May-19 13:05 45.594582 -122.597097 0 37ft 0kts
31-May-19 13:06 45.594583 -122.597097 0 37ft 0kts
31-May-19 13:07 45.594585 -122.597097 0 37ft 0kts
31-May-19 13:08 45.594665 -122.597082 13 37ft 3kts
31-May-19 13:09 45.594722 -122.595401 118 37ft 14kts
31-May-19 13:10 45.578217 -122.552979 112 1205ft 181kts
31-May-19 13:11 45.569179 -122.472379 103 5046ft 197kts
31-May-19 13:12 45.551565 -122.383462 104 7295ft 264kts
31-May-19 13:13 45.500467 -122.316734 172 10153ft 290kts
31-May-19 13:14 45.426957 -122.352653 234 12982ft 307kts
31-May-19 13:15 45.383877 -122.461540 248 15331ft 338kts
31-May-19 13:16 45.343093 -122.594416 246 16868ft 395kts
31-May-19 13:17 45.294713 -122.743793 246 19134ft 424kts
31-May-19 13:18 45.245190 -122.897343 246 21773ft 434kts
31-May-19 13:19 45.154803 -123.008212 202 23734ft 452kts
31-May-19 13:20 45.032615 -123.062054 199 25604ft 466kts
31-May-19 13:21 44.911576 -123.125538 199 27790ft 463kts
31-May-19 13:22 44.789772 -123.185400 200 29616ft 462kts
31-May-19 13:23 44.667653 -123.246040 200 31023ft 466kts
31-May-19 13:24 44.545515 -123.306628 200 32351ft 467kts
31-May-19 13:25 44.417762 -123.331077 171 33331ft 469kts
31-May-19 13:26 44.288093 -123.318760 180 34351ft 471kts
31-May-19 13:27 44.156786 -123.315415 176 35359ft 469kts
31-May-19 13:28 44.026223 -123.309714 178 36164ft 471kts
31-May-19 13:29 43.894560 -123.304643 178 36856ft 473kts
31-May-19 13:30 43.764912 -123.299689 177 37101ft 458kts
31-May-19 13:31 43.638757 -123.294866 178 37096ft 454kts
31-May-19 13:32 43.509879 -123.289744 178 37087ft 469kts
31-May-19 13:33 43.377811 -123.284629 178 37079ft 480kts
31-May-19 13:34 43.242789 -123.279524 178 37074ft 491kts
31-May-19 13:35 43.104808 -123.274150 178 37077ft 500kts
31-May-19 13:36 42.964849 -123.268690 178 37092ft 507kts
31-May-19 13:37 42.822770 -123.263054 178 37119ft 511kts
31-May-19 13:38 42.680535 -123.257642 178 37145ft 514kts
31-May-19 13:39 42.537251 -123.252221 178 37152ft 516kts
31-May-19 13:40 42.393209 -123.246783 178 37120ft 518kts
31-May-19 13:41 42.249061 -123.241604 178 37085ft 519kts
31-May-19 13:42 42.104800 -123.236289 178 37075ft 520kts
31-May-19 13:43 41.960047 -123.231127 178 37072ft 520kts
31-May-19 13:44 41.815078 -123.225153 178 37070ft 521kts
31-May-19 13:45 41.669932 -123.219917 178 37082ft 522kts
31-May-19 13:46 41.524637 -123.214623 178 37058ft 522kts
31-May-19 13:47 41.379366 -123.209533 178 37052ft 522kts
31-May-19 13:48 41.234222 -123.204297 178 37052ft 522kts
31-May-19 13:49 41.089005 -123.198992 178 37050ft 523kts
31-May-19 13:50 40.943176 -123.193640 178 37045ft 523kts
31-May-19 13:51 40.797736 -123.188585 178 37041ft 524kts
31-May-19 13:52 40.651743 -123.183138 178 37028ft 525kts
31-May-19 13:53 40.505636 -123.177928 178 37019ft 526kts
31-May-19 13:54 40.359334 -123.172789 178 37013ft 527kts
31-May-19 13:55 40.212410 -123.167645 178 37001ft 527kts
31-May-19 13:56 40.065775 -123.162496 178 36999ft 528kts
31-May-19 13:57 39.918540 -123.157596 179 36984ft 529kts
31-May-19 13:58 39.771510 -123.152298 179 36957ft 530kts
31-May-19 13:59 39.623582 -123.147167 178 36936ft 530kts
31-May-19 14:00 39.476268 -123.142243 179 36926ft 530kts
31-May-19 14:01 39.328601 -123.137159 179 36918ft 530kts
31-May-19 14:02 39.181655 -123.131963 179 36914ft 529kts
31-May-19 14:03 39.039206 -123.127059 179 35325ft 497kts
31-May-19 14:04 38.905350 -123.110792 154 33314ft 473kts
31-May-19 14:05 38.825808 -122.991427 119 31331ft 442kts
31-May-19 14:06 38.720726 -122.911747 172 29133ft 459kts
31-May-19 14:07 38.593504 -122.893410 156 26261ft 462kts
31-May-19 14:08 38.482504 -122.838519 174 23934ft 404kts
31-May-19 14:09 38.374494 -122.812171 162 21904ft 392kts
31-May-19 14:10 38.267333 -122.779790 166 19955ft 398kts
31-May-19 14:11 38.160777 -122.748892 165 18518ft 388kts
31-May-19 14:12 38.056664 -122.718843 165 16755ft 367kts
31-May-19 14:13 37.962204 -122.691422 165 14754ft 335kts
31-May-19 14:14 37.877985 -122.655059 141 12751ft 309kts
31-May-19 14:15 37.815730 -122.583412 137 11064ft 292kts
31-May-19 14:16 37.750338 -122.515327 137 10995ft 314kts
31-May-19 14:17 37.686494 -122.447150 137 10998ft 264kts
31-May-19 14:18 37.630642 -122.403309 154 10139ft 234kts
31-May-19 14:19 37.566653 -122.367636 154 7791ft 256kts
31-May-19 14:20 37.510637 -122.325747 127 6839ft 226kts
31-May-19 14:21 37.472612 -122.262987 124 5365ft 209kts
31-May-19 14:22 37.441404 -122.205792 99 4035ft 179kts
31-May-19 14:23 37.478340 -122.176662 346 4123ft 202kts
31-May-19 14:24 37.531425 -122.175700 345 3179ft 177kts
31-May-19 14:25 37.555631 -122.223940 297 2269ft 156kts
31-May-19 14:26 37.574229 -122.269402 299 1778ft 141kts
31-May-19 14:27 37.591935 -122.311560 299 838ft 117kts
31-May-19 14:29 37.607199 -122.347720 297 248ft 118kts
31-May-19 14:30 37.617889 -122.373120 298 20ft 31kts
31-May-19 14:31 37.619768 -122.379338 239 20ft 0kts
31-May-19 14:32 37.619851 -122.382631 298 20ft 15kts
31-May-19 14:33 37.620760 -122.386108 292 20ft 8kts
31-May-19 14:34 37.620831 -122.386294 297 20ft 0kts

Navigation Log

Ident Type
Flight plan parsing failed, navigation log unavailable